Time;durP1;ratioP1;P1;durP2;ratioP2;P2;SDS_P1;SDS_P2;PMS_P1;PMS_P2;Temp;Humidity;BMP_temperature;BMP_pressure;BME280_temperature;BME280_humidity;BME280_pressure;Samples;Min_cycle;Max_cycle;Signal;HPM_P1;HPM_P2
2022/02/08 00:00:04;;;;;;;1022.95;954.50;;;;;;;5.24;65.12;101822.31;685472;28;137817;-67
2022/02/08 00:00:27;;;;;;;1026.07;957.28;;;;;;;5.26;65.07;101829.41;689883;28;13388;-67
2022/02/08 00:00:49;;;;;;;1019.83;951.42;;;;;;;5.23;65.11;101831.34;689053;28;44378;-67
2022/02/08 00:01:10;;;;;;;1010.33;942.38;;;;;;;5.24;64.99;101821.47;689002;28;44378;-67
2022/02/08 00:01:35;;;;;;;1009.63;941.67;;;;;;;5.24;65.32;101822.31;688503;28;23487;-67
2022/02/08 00:02:00;;;;;;;1017.33;949.13;;;;;;;5.24;65.25;101818.78;686577;28;115139;-67
2022/02/08 00:02:21;;;;;;;1018.63;950.50;;;;;;;5.24;65.25;101821.47;686743;28;116011;-67
2022/02/08 00:02:48;;;;;;;1009.38;941.65;;;;;;;5.20;65.28;101831.56;689708;28;21553;-67
2022/02/08 00:03:09;;;;;;;1018.25;950.10;;;;;;;5.23;65.23;101825.97;685881;28;136836;-67
2022/02/08 00:03:30;;;;;;;1020.83;952.42;;;;;;;5.23;65.26;101831.34;689798;28;22391;-68
2022/02/08 00:03:52;;;;;;;1020.97;952.55;;;;;;;5.26;65.10;101832.91;689832;28;22333;-67
2022/02/08 00:04:13;;;;;;;1015.42;947.22;;;;;;;5.24;65.10;101822.31;688755;28;46462;-67
2022/02/08 00:04:38;;;;;;;1018.22;949.83;;;;;;;5.24;65.33;101824.16;689179;28;36312;-67
2022/02/08 00:05:00;;;;;;;1014.85;946.63;;;;;;;5.23;65.37;101831.34;689772;28;23274;-67
2022/02/08 00:05:23;;;;;;;1013.00;944.83;;;;;;;5.24;65.13;101830.34;688866;28;47310;-67
2022/02/08 00:05:50;;;;;;;1015.92;947.70;;;;;;;5.19;65.14;101824.50;688028;28;70159;-67
2022/02/08 00:06:26;;;;;;;1008.08;940.28;;;;;;;5.22;65.25;101826.94;685281;28;160905;-67
2022/02/08 00:06:48;;;;;;;1004.30;936.72;;;;;;;5.22;65.38;101831.47;684313;28;157231;-67
2022/02/08 00:07:11;;;;;;;1008.95;941.15;;;;;;;5.22;65.17;101828.78;689195;28;45614;-67
2022/02/08 00:07:33;;;;;;;1005.55;937.75;;;;;;;5.24;65.30;101825.00;687579;28;69442;-67
2022/02/08 00:07:55;;;;;;;1006.30;938.55;;;;;;;5.21;64.93;101819.88;690539;28;1738;-67
2022/02/08 00:08:17;;;;;;;1015.20;947.03;;;;;;;5.23;65.23;101823.31;688661;28;67275;-67
2022/02/08 00:08:39;;;;;;;1006.90;938.92;;;;;;;5.21;65.30;101830.59;688921;28;46503;-67
2022/02/08 00:09:00;;;;;;;1010.78;942.75;;;;;;;5.19;65.00;101832.53;689359;28;21540;-67
2022/02/08 00:09:22;;;;;;;1011.42;943.30;;;;;;;5.20;65.36;101823.53;690167;28;22389;-67
2022/02/08 00:09:44;;;;;;;1015.00;946.65;;;;;;;5.20;65.33;101828.03;688177;28;69439;-67
2022/02/08 00:10:06;;;;;;;1027.32;958.33;;;;;;;5.18;65.35;101825.47;689296;28;45248;-67
2022/02/08 00:10:28;;;;;;;1039.57;970.00;;;;;;;5.21;65.31;101829.75;689626;28;22402;-67
2022/02/08 00:10:49;;;;;;;1041.50;971.92;;;;;;;5.19;65.01;101818.28;689070;28;46330;-67
2022/02/08 00:11:11;;;;;;;1028.90;960.00;;;;;;;5.19;65.28;101826.34;690140;28;22464;-67
2022/02/08 00:11:33;;;;;;;1009.40;941.40;;;;;;;5.18;65.43;101827.28;687021;28;69358;-67
2022/02/08 00:11:54;;;;;;;1007.33;939.47;;;;;;;5.18;65.17;101832.66;689740;28;22366;-67
2022/02/08 00:12:17;;;;;;;1001.40;933.85;;;;;;;5.17;65.27;101828.25;690151;28;20881;-67
2022/02/08 00:12:38;;;;;;;995.63;928.40;;;;;;;5.15;65.48;101824.84;688039;28;69359;-67
2022/02/08 00:12:59;;;;;;;996.65;929.42;;;;;;;5.13;65.35;101826.78;688797;28;45293;-67
2022/02/08 00:13:21;;;;;;;1001.50;933.90;;;;;;;5.14;65.43;101829.34;689818;28;24651;-67
2022/02/08 00:13:42;;;;;;;1012.88;944.83;;;;;;;5.13;65.36;101832.16;689008;28;45273;-67
2022/02/08 00:14:04;;;;;;;1009.00;941.10;;;;;;;5.15;65.48;101835.56;689768;28;21516;-67
2022/02/08 00:14:26;;;;;;;1015.65;947.45;;;;;;;5.16;65.41;101834.59;689849;28;23364;-67
2022/02/08 00:14:48;;;;;;;1017.42;949.13;;;;;;;5.15;65.46;101840.91;688996;28;44397;-67
2022/02/08 00:15:09;;;;;;;1020.83;952.42;;;;;;;5.15;65.28;101832.88;689238;28;46327;-67
2022/02/08 00:15:30;;;;;;;1019.88;951.42;;;;;;;5.14;65.53;101834.72;688867;28;45266;-67
2022/02/08 00:15:52;;;;;;;1012.88;944.85;;;;;;;5.15;65.26;101840.91;689604;28;22375;-67
2022/02/08 00:16:13;;;;;;;999.08;931.70;;;;;;;5.14;65.33;101836.50;688501;28;47506;-67
2022/02/08 00:16:35;;;;;;;1001.88;934.40;;;;;;;5.11;65.36;101829.59;689576;28;22463;-67
2022/02/08 00:16:56;;;;;;;1009.50;941.70;;;;;;;5.13;65.58;101833.00;689617;28;24160;-67
2022/02/08 00:17:18;;;;;;;1015.67;947.47;;;;;;;5.12;65.37;101831.28;689725;28;22408;-67
2022/02/08 00:17:39;;;;;;;1009.38;941.45;;;;;;;5.11;65.42;101839.41;689255;28;46678;-67
2022/02/08 00:18:00;;;;;;;1005.08;937.33;;;;;;;5.10;65.67;101838.56;689583;28;23290;-67
2022/02/08 00:18:22;;;;;;;1011.47;943.40;;;;;;;5.11;65.44;101836.75;690094;28;22215;-67
2022/02/08 00:18:43;;;;;;;1014.92;946.72;;;;;;;5.10;65.47;101833.22;688912;28;44400;-67
2022/02/08 00:19:04;;;;;;;1015.38;947.17;;;;;;;5.09;65.43;101834.19;689288;28;22570;-67
2022/02/08 00:19:25;;;;;;;1012.75;944.67;;;;;;;5.09;65.36;101836.84;689854;28;22502;-67
2022/02/08 00:19:48;;;;;;;1005.75;937.92;;;;;;;5.08;65.72;101837.84;690021;28;22341;-67
2022/02/08 00:20:10;;;;;;;1003.53;935.67;;;;;;;5.09;65.68;101836.84;688920;28;45332;-67
2022/02/08 00:20:31;;;;;;;1011.58;943.38;;;;;;;5.11;65.42;101834.06;688810;28;46943;-67
2022/02/08 00:20:52;;;;;;;1019.10;950.67;;;;;;;5.11;65.39;101831.38;689627;28;21551;-67
2022/02/08 00:21:14;;;;;;;1016.72;948.40;;;;;;;5.09;65.48;101836.84;686321;28;23333;-67
2022/02/08 00:21:35;;;;;;;1017.67;949.35;;;;;;;5.10;65.39;101840.41;685910;28;47721;-67
2022/02/08 00:21:56;;;;;;;1015.27;947.03;;;;;;;5.09;65.74;101836.00;687038;28;23553;-67
2022/02/08 00:22:18;;;;;;;1018.95;950.55;;;;;;;5.08;65.51;101839.66;686339;28;43339;-67
2022/02/08 00:22:39;;;;;;;1016.55;948.25;;;;;;;5.08;65.77;101840.53;685905;28;46231;-67
2022/02/08 00:23:00;;;;;;;1015.90;947.60;;;;;;;5.09;65.58;101841.38;687283;28;22219;-67
2022/02/08 00:23:22;;;;;;;1014.35;946.15;;;;;;;5.09;65.61;101841.38;690319;28;18666;-67
2022/02/08 00:23:44;;;;;;;1015.33;947.13;;;;;;;5.10;65.39;101838.56;688756;28;47319;-67
2022/02/08 00:24:06;;;;;;;1008.47;940.60;;;;;;;5.10;65.46;101840.41;688652;28;46648;-67
2022/02/08 00:24:28;;;;;;;1009.17;941.30;;;;;;;5.10;65.38;101838.56;690523;28;1584;-67
2022/02/08 00:24:49;;;;;;;1007.72;939.95;;;;;;;5.08;65.29;101831.59;689939;28;22867;-67
2022/02/08 00:25:11;;;;;;;1003.60;936.10;;;;;;;5.07;65.89;101844.16;690058;28;21577;-67
2022/02/08 00:25:33;;;;;;;1006.10;938.40;;;;;;;5.08;65.65;101843.19;688505;28;46372;-67
2022/02/08 00:25:54;;;;;;;1003.67;936.08;;;;;;;5.07;65.70;101846.00;689675;28;23392;-67
2022/02/08 00:26:16;;;;;;;1001.67;934.25;;;;;;;5.07;65.73;101833.44;686686;28;46378;-67
2022/02/08 00:26:38;;;;;;;1006.75;939.03;;;;;;;5.07;65.67;101848.66;686331;28;69445;-67
2022/02/08 00:26:59;;;;;;;1010.97;942.97;;;;;;;5.05;65.87;101844.28;688652;28;22401;-67
2022/02/08 00:27:22;;;;;;;1004.53;936.92;;;;;;;5.06;65.64;101842.44;688390;28;22390;-67
2022/02/08 00:27:44;;;;;;;997.88;930.58;;;;;;;5.02;65.85;101831.09;686916;28;67161;-67
2022/02/08 00:28:05;;;;;;;1002.22;934.80;;;;;;;5.06;65.91;101837.09;688156;28;44525;-67
2022/02/08 00:28:26;;;;;;;1001.75;934.38;;;;;;;5.04;65.78;101841.69;689587;28;22281;-67
2022/02/08 00:28:48;;;;;;;1004.45;936.80;;;;;;;5.07;65.72;101848.66;689615;28;22410;-67
2022/02/08 00:29:11;;;;;;;1004.95;937.25;;;;;;;5.07;65.70;101844.16;688652;28;44381;-67
2022/02/08 00:29:33;;;;;;;1000.20;932.72;;;;;;;5.07;65.78;101844.16;687202;28;92305;-67
2022/02/08 00:29:54;;;;;;;997.20;929.92;;;;;;;5.08;65.67;101845.00;688900;28;44292;-67
2022/02/08 00:30:16;;;;;;;1002.10;934.67;;;;;;;5.10;65.52;101837.72;689656;28;21621;-67
2022/02/08 00:30:37;;;;;;;1003.28;935.75;;;;;;;5.11;65.79;101844.78;691347;28;44382;-67
2022/02/08 00:31:00;;;;;;;1003.78;936.20;;;;;;;5.12;65.62;101852.69;688094;28;69412;-67
2022/02/08 00:31:22;;;;;;;1005.97;938.35;;;;;;;5.08;65.52;101848.56;688926;28;21529;-67
2022/02/08 00:31:45;;;;;;;999.00;931.60;;;;;;;5.10;65.56;101851.97;686359;28;46292;-67
2022/02/08 00:32:06;;;;;;;1001.53;934.13;;;;;;;5.10;65.60;101853.78;685256;28;68443;-67
2022/02/08 00:32:27;;;;;;;999.00;931.63;;;;;;;5.08;65.53;101848.56;686108;28;22383;-67
2022/02/08 00:32:50;;;;;;;997.95;930.60;;;;;;;5.08;65.64;101863.75;686296;28;44375;-67
2022/02/08 00:33:11;;;;;;;1005.38;937.78;;;;;;;5.09;65.57;101847.56;683507;28;46302;-67
2022/02/08 00:33:33;;;;;;;1008.22;940.47;;;;;;;5.09;65.52;101850.25;685151;28;23449;-67
2022/02/08 00:33:54;;;;;;;1003.80;936.20;;;;;;;5.07;65.67;101852.19;685969;28;46850;-67
2022/02/08 00:34:16;;;;;;;1006.40;938.60;;;;;;;5.05;65.83;101852.31;687662;28;23389;-67
2022/02/08 00:34:37;;;;;;;1009.38;941.40;;;;;;;5.02;65.58;101852.53;684969;28;69995;-67
2022/02/08 00:34:58;;;;;;;1008.38;940.58;;;;;;;4.99;65.69;101846.56;684641;28;15352;-67
2022/02/08 00:35:20;;;;;;;1009.13;941.22;;;;;;;5.03;65.65;101859.59;687091;28;24337;-68
2022/02/08 00:35:42;;;;;;;1005.90;938.10;;;;;;;5.02;65.65;101854.38;684234;28;21517;-68
2022/02/08 00:36:04;;;;;;;1003.53;936.03;;;;;;;5.05;65.73;101860.34;683375;28;46437;-67
2022/02/08 00:36:25;;;;;;;995.53;928.42;;;;;;;5.05;65.67;101854.13;681489;28;46331;-68
2022/02/08 00:36:46;;;;;;;998.13;930.88;;;;;;;5.04;65.63;101858.63;682206;28;22390;-66
2022/02/08 00:37:08;;;;;;;1003.25;935.60;;;;;;;5.08;65.90;101858.38;684051;28;23460;-67
2022/02/08 00:37:29;;;;;;;1008.45;940.75;;;;;;;5.07;65.93;101857.53;684192;28;44374;-68
2022/02/08 00:37:50;;;;;;;1009.63;941.75;;;;;;;5.08;65.70;101866.41;685535;28;22382;-68
2022/02/08 00:38:12;;;;;;;1006.35;938.65;;;;;;;5.07;65.64;101864.72;684541;28;22400;-67
2022/02/08 00:38:35;;;;;;;1007.22;939.53;;;;;;;5.08;65.75;101861.94;682666;28;69319;-67
2022/02/08 00:38:56;;;;;;;1006.35;938.70;;;;;;;5.05;65.85;101857.66;684533;28;67467;-67
2022/02/08 00:39:17;;;;;;;1007.55;939.70;;;;;;;5.08;65.88;101861.94;686850;28;22346;-67
2022/02/08 00:39:38;;;;;;;1003.97;936.28;;;;;;;5.09;65.69;101860.09;683952;28;22465;-67
2022/02/08 00:40:00;;;;;;;1005.95;938.30;;;;;;;5.09;65.78;101860.09;684806;28;21513;-68
2022/02/08 00:40:23;;;;;;;1015.78;947.67;;;;;;;5.08;65.68;101863.75;682440;28;44378;-67
2022/02/08 00:40:47;;;;;;;1008.88;941.03;;;;;;;5.08;65.88;101867.31;681413;28;70828;-68
2022/02/08 00:41:09;;;;;;;1012.22;944.22;;;;;;;5.09;65.88;101869.00;678193;29;113998;-67
2022/02/08 00:41:31;;;;;;;1006.75;938.97;;;;;;;5.09;65.79;101855.59;680875;28;23504;-68
2022/02/08 00:41:52;;;;;;;1006.13;938.45;;;;;;;5.09;65.77;101862.78;681315;28;47776;-67
2022/02/08 00:42:13;;;;;;;1002.42;934.80;;;;;;;5.09;65.78;101860.09;684532;28;19736;-68
2022/02/08 00:42:35;;;;;;;1006.33;938.53;;;;;;;5.05;65.92;101849.63;683394;28;23607;-66
2022/02/08 00:42:59;;;;;;;1007.58;939.78;;;;;;;5.07;65.75;101854.88;680928;28;45334;-67
2022/02/08 00:43:25;;;;;;;1007.42;939.67;;;;;;;5.08;65.80;101858.38;679417;28;90301;-67
2022/02/08 00:43:51;;;;;;;1007.50;939.70;;;;;;;5.12;65.58;101865.25;677789;29;138475;-67
2022/02/08 00:44:17;;;;;;;1006.70;938.92;;;;;;;5.11;65.65;101864.41;677574;29;138084;-67
2022/02/08 00:44:45;;;;;;;1006.95;939.15;;;;;;;5.08;65.58;101861.06;680233;28;138711;-67
2022/02/08 00:45:20;;;;;;;1020.17;951.88;;;;;;;5.10;65.60;101856.47;682469;28;137039;-66
2022/02/08 00:45:51;;;;;;;1000.45;933.05;;;;;;;5.09;65.93;101865.47;681918;28;138458;-67
2022/02/08 00:46:17;;;;;;;1009.33;941.53;;;;;;;5.08;65.77;101864.63;681878;28;137376;-67
2022/02/08 00:46:44;;;;;;;1017.83;949.58;;;;;;;5.10;65.63;101860.00;684174;28;157589;-67
2022/02/08 00:47:16;;;;;;;1011.03;942.97;;;;;;;5.08;65.76;101867.31;685411;28;138128;-67
2022/02/08 00:47:43;;;;;;;1011.70;943.63;;;;;;;5.10;65.54;101865.34;683208;28;137705;-67
2022/02/08 00:48:14;;;;;;;1012.28;944.30;;;;;;;5.09;65.58;101873.50;680550;28;137899;-67
2022/02/08 00:48:42;;;;;;;1013.75;945.72;;;;;;;5.10;65.57;101867.19;680141;29;60483;-67
2022/02/08 00:49:07;;;;;;;1015.28;947.17;;;;;;;5.07;65.50;101865.56;680564;28;93467;-68
2022/02/08 00:49:33;;;;;;;1009.42;941.47;;;;;;;5.08;65.64;101869.97;681950;28;113545;-67
2022/02/08 00:49:54;;;;;;;1013.78;945.78;;;;;;;5.10;65.83;101872.53;680662;28;138173;-67
2022/02/08 00:50:16;;;;;;;1008.10;940.30;;;;;;;5.10;65.58;101859.16;687195;28;23525;-67
2022/02/08 00:50:39;;;;;;;1012.88;944.88;;;;;;;5.10;65.68;101869.88;681914;28;46950;-66
2022/02/08 00:51:00;;;;;;;1010.75;942.80;;;;;;;5.09;65.58;101862.78;682132;28;67924;-67
2022/02/08 00:51:24;;;;;;;1012.67;944.58;;;;;;;5.09;65.59;101877.03;683294;28;45234;-67
2022/02/08 00:51:47;;;;;;;1013.08;944.92;;;;;;;5.09;65.62;101870.81;686177;28;69448;-66
2022/02/08 00:52:14;;;;;;;1009.95;942.08;;;;;;;5.08;65.87;101874.47;686777;28;67513;-68
2022/02/08 00:52:37;;;;;;;1009.40;941.60;;;;;;;5.07;65.93;101870.94;683617;28;159170;-67
2022/02/08 00:52:59;;;;;;;1002.40;934.92;;;;;;;5.07;65.71;101865.56;685521;28;90274;-66
2022/02/08 00:53:20;;;;;;;1005.67;938.08;;;;;;;5.08;65.71;101866.41;685465;28;22373;-67
2022/02/08 00:53:42;;;;;;;1008.60;940.80;;;;;;;5.06;65.88;101863.84;684775;28;45303;-68
2022/02/08 00:54:03;;;;;;;1009.72;941.88;;;;;;;5.07;65.85;101865.56;684948;28;44423;-67
2022/02/08 00:54:24;;;;;;;1003.83;936.20;;;;;;;5.08;65.78;101866.41;683029;28;21533;-67
2022/02/08 00:54:48;;;;;;;1011.15;943.25;;;;;;;5.08;65.76;101869.97;683760;28;23712;-66
2022/02/08 00:55:12;;;;;;;1007.28;939.53;;;;;;;5.06;65.77;101866.53;681567;28;67478;-68
2022/02/08 00:55:37;;;;;;;1004.72;936.95;;;;;;;5.05;65.81;101870.19;679106;28;136359;-66
2022/02/08 00:55:58;;;;;;;1006.45;938.70;;;;;;;5.05;65.75;101868.38;682274;28;45301;-67
2022/02/08 00:56:20;;;;;;;1000.28;932.78;;;;;;;5.07;65.88;101867.41;684025;28;21538;-68
2022/02/08 00:56:42;;;;;;;1003.50;935.92;;;;;;;5.07;65.68;101867.41;680987;28;46527;-66
2022/02/08 00:57:04;;;;;;;1013.50;945.42;;;;;;;5.07;65.73;101868.25;681725;28;46413;-68
2022/02/08 00:57:25;;;;;;;1010.25;942.35;;;;;;;5.06;65.82;101871.88;679991;28;23544;-66
2022/02/08 00:57:47;;;;;;;1009.78;941.80;;;;;;;5.07;65.70;101872.75;680483;28;23474;-67
2022/02/08 00:58:08;;;;;;;1013.22;945.20;;;;;;;5.09;65.88;101876.19;679513;28;69251;-67
2022/02/08 00:58:30;;;;;;;1016.15;947.90;;;;;;;5.11;65.86;101875.09;683127;28;22369;-67
2022/02/08 00:58:53;;;;;;;1017.88;949.67;;;;;;;5.12;65.74;101870.59;680719;28;94305;-66
2022/02/08 00:59:15;;;;;;;1007.15;939.33;;;;;;;5.12;65.56;101876.78;679522;28;44346;-67
2022/02/08 00:59:36;;;;;;;1006.80;939.10;;;;;;;5.10;65.57;101873.38;684463;28;23851;-67
2022/02/08 00:59:59;;;;;;;1013.42;945.42;;;;;;;5.08;65.74;101872.66;682833;28;69238;-67
2022/02/08 01:00:22;;;;;;;1013.95;945.95;;;;;;;5.09;65.58;101876.19;680352;29;45246;-67
2022/02/08 01:00:43;;;;;;;1010.80;942.90;;;;;;;5.10;65.69;101876.06;681104;28;69159;-67
2022/02/08 01:01:05;;;;;;;1015.67;947.53;;;;;;;5.09;65.66;101886.88;679271;29;22373;-67
2022/02/08 01:01:27;;;;;;;1015.38;947.13;;;;;;;5.09;65.71;101866.31;680839;28;22330;-65
2022/02/08 01:01:50;;;;;;;1020.17;951.67;;;;;;;5.14;65.55;101874.00;681510;28;90294;-66
2022/02/08 01:02:11;;;;;;;1022.10;953.50;;;;;;;5.13;65.41;101875.00;683838;28;23864;-67
2022/02/08 01:02:33;;;;;;;1018.33;949.92;;;;;;;5.14;65.41;101882.03;683958;28;21530;-67
2022/02/08 01:02:57;;;;;;;1014.42;946.28;;;;;;;5.14;65.55;101893.63;681186;28;45224;-67
2022/02/08 01:03:18;;;;;;;1014.63;946.45;;;;;;;5.18;65.28;101878.19;681006;28;92315;-67
2022/02/08 01:03:42;;;;;;;1013.92;945.72;;;;;;;5.18;65.47;101883.53;683549;28;67433;-67
2022/02/08 01:04:04;;;;;;;1019.05;950.65;;;;;;;5.16;65.29;101880.97;685355;28;69279;-67
2022/02/08 01:04:28;;;;;;;1017.50;949.17;;;;;;;5.14;65.41;101880.25;686214;28;45225;-67
2022/02/08 01:04:54;;;;;;;1009.85;941.95;;;;;;;5.16;65.42;101885.47;686667;28;69308;-67
2022/02/08 01:05:16;;;;;;;1011.45;943.55;;;;;;;5.13;65.26;101877.66;685436;28;136676;-67
2022/02/08 01:05:43;;;;;;;1007.97;940.17;;;;;;;5.12;65.36;101870.59;688786;28;45213;-68
2022/02/08 01:06:07;;;;;;;1006.78;939.08;;;;;;;5.11;65.36;101876.91;685572;28;138117;-67
2022/02/08 01:06:29;;;;;;;1007.17;939.58;;;;;;;5.09;65.52;101879.69;682444;28;114982;-68
2022/02/08 01:06:54;;;;;;;1008.35;940.75;;;;;;;5.10;65.63;101877.91;685897;28;42177;-66
2022/02/08 01:07:15;;;;;;;1008.63;940.83;;;;;;;5.10;65.41;101877.91;684240;28;92631;-67
2022/02/08 01:07:37;;;;;;;1007.75;939.92;;;;;;;5.09;65.66;101879.69;684168;28;22214;-67
2022/02/08 01:08:02;;;;;;;1002.13;934.53;;;;;;;5.08;65.65;101877.13;680732;28;69393;-67
2022/02/08 01:08:30;;;;;;;998.28;930.83;;;;;;;5.08;65.63;101882.50;680530;28;93215;-67
2022/02/08 01:08:53;;;;;;;1002.75;935.25;;;;;;;5.05;65.57;101889.78;677647;29;138003;-67
2022/02/08 01:09:17;;;;;;;1012.55;944.45;;;;;;;5.04;65.88;101879.19;679675;29;67309;-68
2022/02/08 01:09:47;;;;;;;1013.70;945.65;;;;;;;5.07;65.58;101880.81;679559;28;115216;-67
2022/02/08 01:10:10;;;;;;;1015.10;946.90;;;;;;;5.08;65.63;101883.38;682958;28;136606;-67
2022/02/08 01:10:36;;;;;;;1012.22;944.30;;;;;;;5.09;65.66;101874.34;687703;28;69281;-68
2022/02/08 01:10:57;;;;;;;1011.00;943.10;;;;;;;5.11;65.52;101887.63;684620;28;160956;-66
2022/02/08 01:11:19;;;;;;;1014.22;946.25;;;;;;;5.12;65.50;101881.31;687863;28;46327;-67
2022/02/08 01:11:44;;;;;;;1015.90;947.90;;;;;;;5.09;65.74;101874.34;688941;28;46283;-67
2022/02/08 01:12:06;;;;;;;1003.20;935.60;;;;;;;5.08;65.58;101875.34;689750;28;90731;-67
2022/02/08 01:12:29;;;;;;;1008.08;940.38;;;;;;;5.08;65.49;101886.03;688975;28;44366;-68
2022/02/08 01:12:52;;;;;;;1013.03;945.08;;;;;;;5.08;65.80;101874.47;687144;28;93005;-67
2022/02/08 01:13:14;;;;;;;1010.00;942.20;;;;;;;5.09;65.76;101869.00;685456;28;46302;-67
2022/02/08 01:13:37;;;;;;;1007.53;939.70;;;;;;;5.08;65.87;101869.97;683170;28;46379;-67
2022/02/08 01:13:58;;;;;;;1001.58;934.08;;;;;;;5.10;65.66;101870.72;682343;28;69329;-67
2022/02/08 01:14:22;;;;;;;996.13;928.72;;;;;;;5.12;65.56;101884.81;684394;28;44195;-66
2022/02/08 01:14:47;;;;;;;1004.85;937.15;;;;;;;5.12;65.50;101870.59;684161;28;92537;-66
2022/02/08 01:15:09;;;;;;;1004.63;936.92;;;;;;;5.12;65.50;101867.91;683552;28;113281;-67
2022/02/08 01:15:30;;;;;;;1008.80;941.00;;;;;;;5.15;65.61;101873.03;685838;28;44503;-67
2022/02/08 01:15:54;;;;;;;1006.58;938.88;;;;;;;5.14;65.28;101884.72;687043;28;22394;-67
2022/02/08 01:16:16;;;;;;;1009.92;942.05;;;;;;;5.16;65.29;101880.13;685720;28;69447;-67
2022/02/08 01:16:37;;;;;;;1010.85;942.85;;;;;;;5.16;65.21;101864.91;688218;28;46331;-67
2022/02/08 01:16:58;;;;;;;1012.53;944.42;;;;;;;5.14;65.43;101868.66;689314;28;22411;-66
2022/02/08 01:17:22;;;;;;;1010.65;942.70;;;;;;;5.16;65.27;101869.41;686757;28;21517;-68
2022/02/08 01:17:47;;;;;;;1006.72;939.03;;;;;;;5.13;65.54;101869.63;684401;28;90630;-68
2022/02/08 01:18:08;;;;;;;1005.42;937.72;;;;;;;5.14;65.34;101872.19;684673;28;115960;-67
2022/02/08 01:18:31;;;;;;;998.70;931.28;;;;;;;5.11;65.34;101868.88;686008;28;46366;-68
2022/02/08 01:18:56;;;;;;;994.85;927.55;;;;;;;5.09;65.64;101863.63;685147;28;67475;-68
2022/02/08 01:19:19;;;;;;;1006.38;938.58;;;;;;;5.08;65.62;101861.94;683400;28;115268;-68
2022/02/08 01:19:48;;;;;;;1007.42;939.63;;;;;;;5.05;65.54;101863.00;683235;28;69233;-68
2022/02/08 01:20:15;;;;;;;998.15;930.67;;;;;;;5.08;65.53;101869.97;682810;28;138420;-67
2022/02/08 01:20:38;;;;;;;993.20;926.00;;;;;;;5.10;65.49;101868.03;685716;28;137842;-67
2022/02/08 01:20:59;;;;;;;997.85;930.47;;;;;;;5.10;65.40;101869.88;686725;28;67350;-66
2022/02/08 01:21:22;;;;;;;998.78;931.28;;;;;;;5.08;65.68;101861.94;690377;28;22392;-67
2022/02/08 01:21:43;;;;;;;1007.05;939.25;;;;;;;5.08;65.50;101867.31;689134;28;69646;-66
2022/02/08 01:22:05;;;;;;;1008.05;940.15;;;;;;;5.07;65.69;101864.72;691006;28;22427;-68
2022/02/08 01:22:26;;;;;;;1008.33;940.45;;;;;;;5.08;65.51;101871.78;690516;28;22370;-66
2022/02/08 01:22:49;;;;;;;1012.72;944.72;;;;;;;5.07;65.56;101870.09;687544;28;46364;-67
2022/02/08 01:23:10;;;;;;;1015.40;947.35;;;;;;;5.03;65.54;101866.75;685276;28;69464;-67
2022/02/08 01:23:32;;;;;;;1014.63;946.53;;;;;;;5.06;65.73;101866.53;685798;28;22452;-65
2022/02/08 01:23:53;;;;;;;1007.35;939.58;;;;;;;5.07;65.59;101864.72;683524;28;45240;-67
2022/02/08 01:24:15;;;;;;;1010.13;942.22;;;;;;;5.03;65.70;101862.28;684771;28;21621;-66
2022/02/08 01:24:36;;;;;;;1008.55;940.75;;;;;;;5.02;65.76;101863.25;685892;28;44391;-68
2022/02/08 01:24:57;;;;;;;1002.53;934.90;;;;;;;5.01;65.66;101872.22;688627;28;23488;-67
2022/02/08 01:25:27;;;;;;;1000.22;932.78;;;;;;;4.99;65.89;101860.78;688322;28;22359;-67
2022/02/08 01:25:53;;;;;;;1002.70;935.15;;;;;;;5.00;65.80;101864.31;684642;28;137940;-67
2022/02/08 01:26:16;;;;;;;1006.05;938.30;;;;;;;4.99;65.69;101859.94;683853;28;138071;-68
2022/02/08 01:26:46;;;;;;;1004.35;936.65;;;;;;;5.00;65.92;101861.63;686987;28;92066;-65
2022/02/08 01:27:10;;;;;;;1003.05;935.38;;;;;;;4.99;66.02;101876.84;685580;28;138395;-68
2022/02/08 01:27:38;;;;;;;1010.57;942.67;;;;;;;5.00;65.89;101869.66;687025;28;90525;-67
2022/02/08 01:28:10;;;;;;;1016.30;948.13;;;;;;;5.02;65.97;101879.31;687984;28;132892;-67
2022/02/08 01:28:39;;;;;;;1011.95;944.03;;;;;;;5.07;65.82;101859.38;687912;28;137703;-67
2022/02/08 01:29:05;;;;;;;1010.55;942.65;;;;;;;5.05;65.65;101865.69;687929;28;138498;-67
2022/02/08 01:29:37;;;;;;;1016.78;948.58;;;;;;;5.08;65.75;101874.47;687240;28;159348;-66
2022/02/08 01:30:01;;;;;;;1010.28;942.38;;;;;;;5.07;65.78;101862.06;686140;28;135977;-67
2022/02/08 01:30:29;;;;;;;1007.30;939.50;;;;;;;5.05;65.65;101865.69;688415;28;58725;-67
2022/02/08 01:31:00;;;;;;;995.17;927.83;;;;;;;5.06;65.47;101861.19;685488;28;137850;-66
2022/02/08 01:31:23;;;;;;;1008.40;940.55;;;;;;;5.03;65.77;101867.63;683783;28;137405;-68
2022/02/08 01:31:46;;;;;;;1012.50;944.50;;;;;;;5.02;65.62;101870.44;686783;28;70180;-67
2022/02/08 01:32:33;;;;;;;1007.33;939.50;;;;;;;5.01;65.66;101858.84;686926;28;69409;-67
2022/02/08 01:33:18;;;;;;;1011.35;943.45;;;;;;;5.00;65.99;101873.22;684156;28;138453;-67
2022/02/08 01:34:30;;;;;;;1008.30;940.47;;;;;;;5.03;65.92;101874.78;673378;29;137606;-67
2022/02/08 01:35:02;;;;;;;1012.95;944.97;;;;;;;5.05;65.75;101868.38;684339;28;137368;-67
2022/02/08 01:35:43;;;;;;;1018.53;950.33;;;;;;;5.03;65.69;101862.28;684745;28;160574;-67
2022/02/08 01:36:26;;;;;;;1006.53;938.67;;;;;;;5.04;65.75;101872.00;680781;28;136925;-67
2022/02/08 01:37:03;;;;;;;1011.33;943.33;;;;;;;5.03;65.84;101869.44;678476;28;157968;-67
2022/02/08 01:37:39;;;;;;;1014.83;946.78;;;;;;;5.04;65.77;101866.66;677527;28;137683;-67
2022/02/08 01:38:07;;;;;;;1005.65;938.03;;;;;;;5.01;65.80;101874.91;680582;28;159724;-68
2022/02/08 01:38:31;;;;;;;1018.25;950.00;;;;;;;4.99;65.56;101863.47;679908;28;136505;-67
2022/02/08 01:38:57;;;;;;;1017.90;949.70;;;;;;;5.01;65.87;101874.06;684416;28;90698;-67
2022/02/08 01:39:26;;;;;;;1009.13;941.13;;;;;;;4.98;65.85;101875.13;684024;28;136363;-67
2022/02/08 01:40:03;;;;;;;1003.15;935.53;;;;;;;4.99;65.89;101863.47;682913;28;137903;-67
2022/02/08 01:40:31;;;;;;;1005.60;937.92;;;;;;;5.02;65.83;101863.25;682760;28;80696;-67
2022/02/08 01:41:20;;;;;;;1004.95;937.20;;;;;;;5.04;65.65;101858.63;681744;28;61140;-67
2022/02/08 01:42:01;;;;;;;1002.70;935.17;;;;;;;5.01;65.75;101869.56;682324;28;81377;-66
2022/02/08 01:42:36;;;;;;;988.88;921.92;;;;;;;4.99;65.90;101873.34;681277;28;135537;-68
2022/02/08 01:43:34;;;;;;;997.67;930.38;;;;;;;4.98;65.83;101872.44;682030;28;137229;-67
2022/02/08 01:44:10;;;;;;;999.40;931.92;;;;;;;4.97;65.96;101859.19;681345;28;137729;-66
2022/02/08 01:44:37;;;;;;;1001.83;934.22;;;;;;;4.98;65.87;101868.94;680614;28;160705;-67
2022/02/08 01:45:14;;;;;;;993.10;925.88;;;;;;;4.94;65.94;101862.97;684412;28;139126;-68
2022/02/08 01:45:44;;;;;;;996.63;929.42;;;;;;;4.93;65.86;101863.06;684802;28;137562;-67
2022/02/08 01:46:12;;;;;;;996.75;929.45;;;;;;;4.94;65.95;101862.13;684147;28;137446;-67
2022/02/08 01:46:48;;;;;;;983.65;916.88;;;;;;;4.93;65.95;101857.72;679001;28;180423;-65
2022/02/08 01:47:25;;;;;;;981.10;914.42;;;;;;;4.93;66.14;101863.91;680749;28;138345;-67
2022/02/08 01:47:50;;;;;;;990.58;923.55;;;;;;;4.90;66.09;101856.09;680906;28;138104;-66
2022/02/08 01:48:14;;;;;;;995.30;928.20;;;;;;;4.93;66.20;101858.56;683402;28;113250;-68
2022/02/08 01:48:46;;;;;;;988.38;921.60;;;;;;;4.93;65.96;101863.91;686635;28;92146;-67
2022/02/08 01:49:15;;;;;;;985.85;919.00;;;;;;;4.93;66.04;101868.44;682636;28;135962;-68